sensor_id;sensor_type;location;lat;lon;timestamp;P1;durP1;ratioP1;P2;durP2;ratioP2
9156;SDS011;4613;48.392;9.998;2022-11-15T00:01:23;3.53;;;2.47;;
9156;SDS011;4613;48.392;9.998;2022-11-15T00:04:31;3.00;;;2.00;;
9156;SDS011;4613;48.392;9.998;2022-11-15T00:07:39;4.60;;;2.43;;
9156;SDS011;4613;48.392;9.998;2022-11-15T00:10:57;2.57;;;2.13;;
9156;SDS011;4613;48.392;9.998;2022-11-15T00:14:06;3.20;;;2.77;;
9156;SDS011;4613;48.392;9.998;2022-11-15T00:17:14;4.33;;;3.07;;
9156;SDS011;4613;48.392;9.998;2022-11-15T00:20:22;3.60;;;2.80;;
9156;SDS011;4613;48.392;9.998;2022-11-15T00:23:30;4.37;;;3.00;;
9156;SDS011;4613;48.392;9.998;2022-11-15T00:26:38;3.13;;;2.63;;
9156;SDS011;4613;48.392;9.998;2022-11-15T00:29:46;4.33;;;2.90;;
9156;SDS011;4613;48.392;9.998;2022-11-15T00:32:56;3.87;;;2.57;;
9156;SDS011;4613;48.392;9.998;2022-11-15T00:36:12;3.17;;;2.87;;
9156;SDS011;4613;48.392;9.998;2022-11-15T00:39:20;4.93;;;2.80;;
9156;SDS011;4613;48.392;9.998;2022-11-15T00:42:28;4.03;;;3.20;;
9156;SDS011;4613;48.392;9.998;2022-11-15T00:45:36;3.23;;;2.60;;
9156;SDS011;4613;48.392;9.998;2022-11-15T00:48:44;4.10;;;2.87;;
9156;SDS011;4613;48.392;9.998;2022-11-15T00:51:52;3.80;;;3.03;;
9156;SDS011;4613;48.392;9.998;2022-11-15T00:55:00;3.00;;;2.67;;
9156;SDS011;4613;48.392;9.998;2022-11-15T00:58:08;3.83;;;2.80;;
9156;SDS011;4613;48.392;9.998;2022-11-15T01:01:16;3.20;;;2.70;;
9156;SDS011;4613;48.392;9.998;2022-11-15T01:04:24;3.60;;;2.90;;
9156;SDS011;4613;48.392;9.998;2022-11-15T01:07:32;4.53;;;3.13;;
9156;SDS011;4613;48.392;9.998;2022-11-15T01:10:40;5.90;;;3.60;;
9156;SDS011;4613;48.392;9.998;2022-11-15T01:13:49;3.47;;;2.60;;
9156;SDS011;4613;48.392;9.998;2022-11-15T01:17:02;2.77;;;2.57;;
9156;SDS011;4613;48.392;9.998;2022-11-15T01:20:10;3.20;;;2.63;;
9156;SDS011;4613;48.392;9.998;2022-11-15T01:23:18;3.47;;;2.70;;
9156;SDS011;4613;48.392;9.998;2022-11-15T01:26:26;5.77;;;3.30;;
9156;SDS011;4613;48.392;9.998;2022-11-15T01:29:35;5.13;;;2.97;;
9156;SDS011;4613;48.392;9.998;2022-11-15T01:32:43;3.67;;;2.87;;
9156;SDS011;4613;48.392;9.998;2022-11-15T01:35:51;2.83;;;2.53;;
9156;SDS011;4613;48.392;9.998;2022-11-15T01:38:59;4.77;;;3.00;;
9156;SDS011;4613;48.392;9.998;2022-11-15T01:42:11;3.17;;;2.70;;
9156;SDS011;4613;48.392;9.998;2022-11-15T01:45:20;2.70;;;2.43;;
9156;SDS011;4613;48.392;9.998;2022-11-15T01:48:32;2.47;;;2.20;;
9156;SDS011;4613;48.392;9.998;2022-11-15T01:51:42;3.07;;;2.77;;
9156;SDS011;4613;48.392;9.998;2022-11-15T01:54:51;2.73;;;2.30;;
9156;SDS011;4613;48.392;9.998;2022-11-15T01:58:04;2.87;;;2.30;;
9156;SDS011;4613;48.392;9.998;2022-11-15T02:01:13;4.23;;;2.63;;
9156;SDS011;4613;48.392;9.998;2022-11-15T02:04:29;3.10;;;2.67;;
9156;SDS011;4613;48.392;9.998;2022-11-15T02:07:42;3.63;;;2.50;;
9156;SDS011;4613;48.392;9.998;2022-11-15T02:10:52;3.10;;;2.47;;
9156;SDS011;4613;48.392;9.998;2022-11-15T02:14:00;3.73;;;2.37;;
9156;SDS011;4613;48.392;9.998;2022-11-15T02:20:47;2.63;;;2.40;;
9156;SDS011;4613;48.392;9.998;2022-11-15T02:31:36;2.47;;;2.23;;
9156;SDS011;4613;48.392;9.998;2022-11-15T02:41:48;2.50;;;2.13;;
9156;SDS011;4613;48.392;9.998;2022-11-15T02:45:01;2.60;;;2.27;;
9156;SDS011;4613;48.392;9.998;2022-11-15T02:48:16;3.80;;;2.33;;
9156;SDS011;4613;48.392;9.998;2022-11-15T02:51:25;3.47;;;2.60;;
9156;SDS011;4613;48.392;9.998;2022-11-15T02:54:33;3.80;;;2.67;;
9156;SDS011;4613;48.392;9.998;2022-11-15T02:57:45;2.30;;;1.80;;
9156;SDS011;4613;48.392;9.998;2022-11-15T03:01:08;3.17;;;2.53;;
9156;SDS011;4613;48.392;9.998;2022-11-15T03:04:26;2.83;;;2.27;;
9156;SDS011;4613;48.392;9.998;2022-11-15T03:11:09;2.83;;;2.27;;
9156;SDS011;4613;48.392;9.998;2022-11-15T03:14:39;2.50;;;2.17;;
9156;SDS011;4613;48.392;9.998;2022-11-15T03:18:01;4.20;;;2.57;;
9156;SDS011;4613;48.392;9.998;2022-11-15T03:21:14;3.43;;;2.37;;
9156;SDS011;4613;48.392;9.998;2022-11-15T03:24:25;2.67;;;2.30;;
9156;SDS011;4613;48.392;9.998;2022-11-15T03:27:38;2.30;;;2.10;;
9156;SDS011;4613;48.392;9.998;2022-11-15T03:30:48;2.40;;;2.10;;
9156;SDS011;4613;48.392;9.998;2022-11-15T03:33:58;2.77;;;2.07;;
9156;SDS011;4613;48.392;9.998;2022-11-15T03:37:08;2.60;;;2.10;;
9156;SDS011;4613;48.392;9.998;2022-11-15T03:40:22;2.33;;;2.13;;
9156;SDS011;4613;48.392;9.998;2022-11-15T03:47:21;4.00;;;2.57;;
9156;SDS011;4613;48.392;9.998;2022-11-15T03:50:38;2.83;;;2.43;;
9156;SDS011;4613;48.392;9.998;2022-11-15T03:53:48;3.37;;;2.70;;
9156;SDS011;4613;48.392;9.998;2022-11-15T03:56:56;3.47;;;2.83;;
9156;SDS011;4613;48.392;9.998;2022-11-15T04:00:04;3.47;;;2.70;;
9156;SDS011;4613;48.392;9.998;2022-11-15T04:03:13;2.77;;;2.40;;
9156;SDS011;4613;48.392;9.998;2022-11-15T04:06:20;3.50;;;2.40;;
9156;SDS011;4613;48.392;9.998;2022-11-15T04:09:28;2.83;;;2.33;;
9156;SDS011;4613;48.392;9.998;2022-11-15T04:12:38;4.43;;;2.73;;
9156;SDS011;4613;48.392;9.998;2022-11-15T04:15:50;3.20;;;2.70;;
9156;SDS011;4613;48.392;9.998;2022-11-15T04:18:59;3.73;;;2.90;;
9156;SDS011;4613;48.392;9.998;2022-11-15T04:22:26;2.93;;;2.63;;
9156;SDS011;4613;48.392;9.998;2022-11-15T04:25:53;4.70;;;2.60;;
9156;SDS011;4613;48.392;9.998;2022-11-15T04:29:02;6.20;;;3.40;;
9156;SDS011;4613;48.392;9.998;2022-11-15T04:32:29;4.90;;;3.30;;
9156;SDS011;4613;48.392;9.998;2022-11-15T04:35:37;5.63;;;3.73;;
9156;SDS011;4613;48.392;9.998;2022-11-15T04:38:46;4.47;;;3.47;;
9156;SDS011;4613;48.392;9.998;2022-11-15T04:41:54;3.33;;;2.90;;
9156;SDS011;4613;48.392;9.998;2022-11-15T04:45:02;5.30;;;3.30;;
9156;SDS011;4613;48.392;9.998;2022-11-15T04:48:10;4.10;;;3.47;;
9156;SDS011;4613;48.392;9.998;2022-11-15T04:51:18;3.83;;;3.43;;
9156;SDS011;4613;48.392;9.998;2022-11-15T04:54:27;4.13;;;3.50;;
9156;SDS011;4613;48.392;9.998;2022-11-15T04:57:36;4.77;;;3.60;;
9156;SDS011;4613;48.392;9.998;2022-11-15T05:00:45;4.17;;;3.17;;
9156;SDS011;4613;48.392;9.998;2022-11-15T05:03:53;4.67;;;3.33;;
9156;SDS011;4613;48.392;9.998;2022-11-15T05:07:20;5.27;;;3.43;;
9156;SDS011;4613;48.392;9.998;2022-11-15T05:10:28;5.03;;;3.50;;
9156;SDS011;4613;48.392;9.998;2022-11-15T05:13:36;5.33;;;3.43;;
9156;SDS011;4613;48.392;9.998;2022-11-15T05:16:45;5.17;;;3.27;;
9156;SDS011;4613;48.392;9.998;2022-11-15T05:19:53;3.70;;;3.03;;
9156;SDS011;4613;48.392;9.998;2022-11-15T05:23:01;3.80;;;3.17;;
9156;SDS011;4613;48.392;9.998;2022-11-15T05:26:10;5.27;;;3.57;;
9156;SDS011;4613;48.392;9.998;2022-11-15T05:29:19;4.37;;;3.23;;
9156;SDS011;4613;48.392;9.998;2022-11-15T05:32:29;4.13;;;3.47;;
9156;SDS011;4613;48.392;9.998;2022-11-15T05:35:41;12.43;;;7.53;;
9156;SDS011;4613;48.392;9.998;2022-11-15T05:38:53;11.80;;;6.80;;
9156;SDS011;4613;48.392;9.998;2022-11-15T05:42:04;8.97;;;5.50;;
9156;SDS011;4613;48.392;9.998;2022-11-15T05:45:16;5.43;;;3.10;;
9156;SDS011;4613;48.392;9.998;2022-11-15T05:48:25;5.17;;;3.17;;
9156;SDS011;4613;48.392;9.998;2022-11-15T05:51:34;3.50;;;3.00;;
9156;SDS011;4613;48.392;9.998;2022-11-15T05:54:43;3.80;;;2.80;;
9156;SDS011;4613;48.392;9.998;2022-11-15T05:57:51;2.63;;;2.43;;
9156;SDS011;4613;48.392;9.998;2022-11-15T06:01:00;4.13;;;2.70;;
9156;SDS011;4613;48.392;9.998;2022-11-15T06:04:08;2.57;;;2.37;;
9156;SDS011;4613;48.392;9.998;2022-11-15T06:07:17;3.97;;;2.63;;
9156;SDS011;4613;48.392;9.998;2022-11-15T06:10:26;2.30;;;2.10;;
9156;SDS011;4613;48.392;9.998;2022-11-15T06:13:34;3.10;;;2.80;;
9156;SDS011;4613;48.392;9.998;2022-11-15T06:16:43;2.90;;;2.47;;
9156;SDS011;4613;48.392;9.998;2022-11-15T06:19:52;4.00;;;3.13;;
9156;SDS011;4613;48.392;9.998;2022-11-15T06:23:00;3.93;;;3.10;;
9156;SDS011;4613;48.392;9.998;2022-11-15T06:26:10;4.00;;;3.27;;
9156;SDS011;4613;48.392;9.998;2022-11-15T06:29:18;3.70;;;3.20;;
9156;SDS011;4613;48.392;9.998;2022-11-15T06:32:26;4.40;;;3.03;;
9156;SDS011;4613;48.392;9.998;2022-11-15T06:35:34;4.03;;;3.23;;
9156;SDS011;4613;48.392;9.998;2022-11-15T06:38:43;4.55;;;3.40;;
9156;SDS011;4613;48.392;9.998;2022-11-15T06:41:52;4.17;;;3.53;;
9156;SDS011;4613;48.392;9.998;2022-11-15T06:45:00;4.63;;;3.70;;
9156;SDS011;4613;48.392;9.998;2022-11-15T06:48:08;4.53;;;3.23;;
9156;SDS011;4613;48.392;9.998;2022-11-15T06:51:16;5.33;;;3.50;;
9156;SDS011;4613;48.392;9.998;2022-11-15T06:54:25;4.47;;;3.60;;
9156;SDS011;4613;48.392;9.998;2022-11-15T06:57:35;6.30;;;4.30;;
9156;SDS011;4613;48.392;9.998;2022-11-15T07:00:53;6.33;;;3.73;;
9156;SDS011;4613;48.392;9.998;2022-11-15T07:04:05;5.10;;;3.93;;
9156;SDS011;4613;48.392;9.998;2022-11-15T07:07:14;5.57;;;3.93;;
9156;SDS011;4613;48.392;9.998;2022-11-15T07:10:23;6.63;;;4.10;;
9156;SDS011;4613;48.392;9.998;2022-11-15T07:13:32;4.17;;;3.50;;
9156;SDS011;4613;48.392;9.998;2022-11-15T07:16:42;5.80;;;3.67;;
9156;SDS011;4613;48.392;9.998;2022-11-15T07:19:51;5.83;;;3.60;;
9156;SDS011;4613;48.392;9.998;2022-11-15T07:23:00;4.97;;;3.50;;
9156;SDS011;4613;48.392;9.998;2022-11-15T07:26:09;4.50;;;3.53;;
9156;SDS011;4613;48.392;9.998;2022-11-15T07:29:17;5.27;;;3.87;;
9156;SDS011;4613;48.392;9.998;2022-11-15T07:32:25;5.03;;;3.67;;
9156;SDS011;4613;48.392;9.998;2022-11-15T07:35:33;6.03;;;3.47;;
9156;SDS011;4613;48.392;9.998;2022-11-15T07:38:42;4.47;;;3.53;;
9156;SDS011;4613;48.392;9.998;2022-11-15T07:41:50;3.87;;;3.10;;
9156;SDS011;4613;48.392;9.998;2022-11-15T07:45:19;6.13;;;3.20;;
9156;SDS011;4613;48.392;9.998;2022-11-15T07:48:27;4.47;;;3.57;;
9156;SDS011;4613;48.392;9.998;2022-11-15T07:51:35;4.77;;;3.10;;
9156;SDS011;4613;48.392;9.998;2022-11-15T07:54:43;4.07;;;2.80;;
9156;SDS011;4613;48.392;9.998;2022-11-15T07:57:51;3.93;;;2.80;;
9156;SDS011;4613;48.392;9.998;2022-11-15T08:01:03;3.77;;;2.90;;
9156;SDS011;4613;48.392;9.998;2022-11-15T08:04:16;3.37;;;3.03;;
9156;SDS011;4613;48.392;9.998;2022-11-15T08:07:24;4.20;;;2.73;;
9156;SDS011;4613;48.392;9.998;2022-11-15T08:10:32;3.43;;;3.13;;
9156;SDS011;4613;48.392;9.998;2022-11-15T08:13:41;4.20;;;3.10;;
9156;SDS011;4613;48.392;9.998;2022-11-15T08:16:49;3.43;;;3.13;;
9156;SDS011;4613;48.392;9.998;2022-11-15T08:19:57;3.50;;;3.20;;
9156;SDS011;4613;48.392;9.998;2022-11-15T08:23:05;4.10;;;3.20;;
9156;SDS011;4613;48.392;9.998;2022-11-15T08:26:14;4.97;;;4.10;;
9156;SDS011;4613;48.392;9.998;2022-11-15T08:29:22;4.27;;;3.70;;
9156;SDS011;4613;48.392;9.998;2022-11-15T08:32:31;4.63;;;3.67;;
9156;SDS011;4613;48.392;9.998;2022-11-15T08:35:43;4.67;;;3.47;;
9156;SDS011;4613;48.392;9.998;2022-11-15T08:38:51;3.13;;;2.80;;
9156;SDS011;4613;48.392;9.998;2022-11-15T08:42:05;4.53;;;3.40;;
9156;SDS011;4613;48.392;9.998;2022-11-15T08:45:13;5.33;;;3.20;;
9156;SDS011;4613;48.392;9.998;2022-11-15T08:48:26;4.03;;;3.63;;
9156;SDS011;4613;48.392;9.998;2022-11-15T08:51:35;6.03;;;3.70;;
9156;SDS011;4613;48.392;9.998;2022-11-15T08:54:47;5.50;;;3.87;;
9156;SDS011;4613;48.392;9.998;2022-11-15T08:57:57;5.20;;;3.70;;
9156;SDS011;4613;48.392;9.998;2022-11-15T09:01:05;4.70;;;3.73;;
9156;SDS011;4613;48.392;9.998;2022-11-15T09:04:17;4.90;;;4.00;;
9156;SDS011;4613;48.392;9.998;2022-11-15T09:07:28;4.47;;;3.73;;
9156;SDS011;4613;48.392;9.998;2022-11-15T09:10:37;8.30;;;4.90;;
9156;SDS011;4613;48.392;9.998;2022-11-15T09:13:49;6.37;;;4.63;;
9156;SDS011;4613;48.392;9.998;2022-11-15T09:16:58;6.03;;;4.70;;
9156;SDS011;4613;48.392;9.998;2022-11-15T09:20:06;6.57;;;4.60;;
9156;SDS011;4613;48.392;9.998;2022-11-15T09:23:15;6.90;;;5.00;;
9156;SDS011;4613;48.392;9.998;2022-11-15T09:26:24;6.43;;;4.40;;
9156;SDS011;4613;48.392;9.998;2022-11-15T09:29:33;8.17;;;5.60;;
9156;SDS011;4613;48.392;9.998;2022-11-15T09:32:41;8.23;;;5.73;;
9156;SDS011;4613;48.392;9.998;2022-11-15T09:35:49;7.67;;;5.73;;
9156;SDS011;4613;48.392;9.998;2022-11-15T09:38:57;10.40;;;7.20;;
9156;SDS011;4613;48.392;9.998;2022-11-15T09:42:12;14.20;;;9.53;;
9156;SDS011;4613;48.392;9.998;2022-11-15T09:45:46;10.93;;;7.53;;
9156;SDS011;4613;48.392;9.998;2022-11-15T09:49:39;11.20;;;7.00;;
9156;SDS011;4613;48.392;9.998;2022-11-15T09:52:39;11.57;;;7.43;;
9156;SDS011;4613;48.392;9.998;2022-11-15T09:55:34;8.83;;;6.00;;
9156;SDS011;4613;48.392;9.998;2022-11-15T10:05:03;10.83;;;6.47;;
9156;SDS011;4613;48.392;9.998;2022-11-15T10:07:56;10.93;;;7.50;;
9156;SDS011;4613;48.392;9.998;2022-11-15T10:13:51;9.07;;;6.23;;
9156;SDS011;4613;48.392;9.998;2022-11-15T10:19:56;8.57;;;5.77;;
9156;SDS011;4613;48.392;9.998;2022-11-15T10:23:00;6.60;;;4.83;;
9156;SDS011;4613;48.392;9.998;2022-11-15T10:25:55;5.50;;;4.70;;
9156;SDS011;4613;48.392;9.998;2022-11-15T10:28:46;9.07;;;5.23;;
9156;SDS011;4613;48.392;9.998;2022-11-15T10:31:37;5.73;;;4.80;;
9156;SDS011;4613;48.392;9.998;2022-11-15T10:34:39;6.50;;;5.10;;
9156;SDS011;4613;48.392;9.998;2022-11-15T10:37:29;8.53;;;5.30;;
9156;SDS011;4613;48.392;9.998;2022-11-15T10:40:23;6.87;;;5.27;;
9156;SDS011;4613;48.392;9.998;2022-11-15T10:43:15;6.13;;;4.97;;
9156;SDS011;4613;48.392;9.998;2022-11-15T10:46:22;8.30;;;5.57;;
9156;SDS011;4613;48.392;9.998;2022-11-15T10:49:23;8.73;;;5.77;;
9156;SDS011;4613;48.392;9.998;2022-11-15T10:52:20;8.43;;;5.87;;
9156;SDS011;4613;48.392;9.998;2022-11-15T10:58:50;11.43;;;6.60;;
9156;SDS011;4613;48.392;9.998;2022-11-15T11:01:19;7.07;;;5.17;;
9156;SDS011;4613;48.392;9.998;2022-11-15T11:04:11;8.30;;;5.80;;
9156;SDS011;4613;48.392;9.998;2022-11-15T11:07:01;8.40;;;5.97;;
9156;SDS011;4613;48.392;9.998;2022-11-15T11:09:58;9.63;;;5.37;;
9156;SDS011;4613;48.392;9.998;2022-11-15T11:12:54;8.13;;;5.20;;
9156;SDS011;4613;48.392;9.998;2022-11-15T11:15:44;8.63;;;5.13;;
9156;SDS011;4613;48.392;9.998;2022-11-15T11:22:01;8.87;;;4.97;;
9156;SDS011;4613;48.392;9.998;2022-11-15T11:49:52;4.33;;;3.07;;
9156;SDS011;4613;48.392;9.998;2022-11-15T11:56:04;3.30;;;3.00;;
9156;SDS011;4613;48.392;9.998;2022-11-15T12:02:43;4.43;;;3.57;;
9156;SDS011;4613;48.392;9.998;2022-11-15T12:05:39;3.53;;;3.20;;
9156;SDS011;4613;48.392;9.998;2022-11-15T12:08:33;5.93;;;4.03;;
9156;SDS011;4613;48.392;9.998;2022-11-15T12:17:33;5.57;;;3.60;;
9156;SDS011;4613;48.392;9.998;2022-11-15T12:20:24;5.07;;;3.17;;
9156;SDS011;4613;48.392;9.998;2022-11-15T12:23:17;4.27;;;3.50;;
9156;SDS011;4613;48.392;9.998;2022-11-15T12:26:22;3.47;;;2.67;;
9156;SDS011;4613;48.392;9.998;2022-11-15T12:29:20;4.07;;;3.47;;
9156;SDS011;4613;48.392;9.998;2022-11-15T12:38:49;3.03;;;2.73;;
9156;SDS011;4613;48.392;9.998;2022-11-15T12:47:36;4.20;;;3.23;;
9156;SDS011;4613;48.392;9.998;2022-11-15T12:53:43;3.80;;;3.27;;
9156;SDS011;4613;48.392;9.998;2022-11-15T12:56:33;4.20;;;3.40;;
9156;SDS011;4613;48.392;9.998;2022-11-15T13:02:46;4.63;;;3.03;;
9156;SDS011;4613;48.392;9.998;2022-11-15T13:05:56;4.20;;;3.10;;
9156;SDS011;4613;48.392;9.998;2022-11-15T13:08:47;3.10;;;2.60;;
9156;SDS011;4613;48.392;9.998;2022-11-15T13:11:41;3.30;;;2.80;;
9156;SDS011;4613;48.392;9.998;2022-11-15T13:17:45;3.40;;;2.87;;
9156;SDS011;4613;48.392;9.998;2022-11-15T13:20:36;4.37;;;2.90;;
9156;SDS011;4613;48.392;9.998;2022-11-15T13:23:25;3.77;;;3.00;;
9156;SDS011;4613;48.392;9.998;2022-11-15T13:26:14;3.00;;;2.50;;
9156;SDS011;4613;48.392;9.998;2022-11-15T13:29:17;3.97;;;3.00;;
9156;SDS011;4613;48.392;9.998;2022-11-15T13:32:11;2.60;;;2.40;;
9156;SDS011;4613;48.392;9.998;2022-11-15T13:35:06;4.50;;;3.20;;
9156;SDS011;4613;48.392;9.998;2022-11-15T13:37:56;3.77;;;3.17;;
9156;SDS011;4613;48.392;9.998;2022-11-15T13:40:47;3.90;;;3.40;;
9156;SDS011;4613;48.392;9.998;2022-11-15T13:43:36;4.13;;;2.87;;
9156;SDS011;4613;48.392;9.998;2022-11-15T13:46:27;4.60;;;3.40;;
9156;SDS011;4613;48.392;9.998;2022-11-15T13:49:28;4.70;;;3.50;;
9156;SDS011;4613;48.392;9.998;2022-11-15T13:52:19;5.67;;;4.23;;
9156;SDS011;4613;48.392;9.998;2022-11-15T13:55:11;4.70;;;4.10;;
9156;SDS011;4613;48.392;9.998;2022-11-15T13:58:09;4.13;;;3.10;;
9156;SDS011;4613;48.392;9.998;2022-11-15T14:01:00;4.93;;;3.70;;
9156;SDS011;4613;48.392;9.998;2022-11-15T14:06:50;4.20;;;3.50;;
9156;SDS011;4613;48.392;9.998;2022-11-15T14:09:45;4.40;;;3.70;;
9156;SDS011;4613;48.392;9.998;2022-11-15T14:12:35;4.13;;;3.27;;
9156;SDS011;4613;48.392;9.998;2022-11-15T14:21:34;5.33;;;3.90;;
9156;SDS011;4613;48.392;9.998;2022-11-15T14:24:24;7.13;;;3.53;;
9156;SDS011;4613;48.392;9.998;2022-11-15T14:27:25;4.73;;;3.20;;
9156;SDS011;4613;48.392;9.998;2022-11-15T14:30:16;5.73;;;3.70;;
9156;SDS011;4613;48.392;9.998;2022-11-15T14:33:25;3.50;;;3.07;;
9156;SDS011;4613;48.392;9.998;2022-11-15T14:36:19;6.17;;;3.63;;
9156;SDS011;4613;48.392;9.998;2022-11-15T14:39:10;5.07;;;3.63;;
9156;SDS011;4613;48.392;9.998;2022-11-15T14:41:59;6.33;;;3.57;;
9156;SDS011;4613;48.392;9.998;2022-11-15T14:44:50;4.90;;;3.53;;
9156;SDS011;4613;48.392;9.998;2022-11-15T14:47:39;4.00;;;3.13;;
9156;SDS011;4613;48.392;9.998;2022-11-15T14:50:29;4.70;;;3.27;;
9156;SDS011;4613;48.392;9.998;2022-11-15T14:53:20;3.70;;;3.00;;
9156;SDS011;4613;48.392;9.998;2022-11-15T14:56:11;3.87;;;3.23;;
9156;SDS011;4613;48.392;9.998;2022-11-15T14:59:01;4.57;;;3.53;;
9156;SDS011;4613;48.392;9.998;2022-11-15T15:01:51;4.57;;;3.47;;
9156;SDS011;4613;48.392;9.998;2022-11-15T15:04:40;5.30;;;3.70;;
9156;SDS011;4613;48.392;9.998;2022-11-15T15:07:30;4.07;;;3.43;;
9156;SDS011;4613;48.392;9.998;2022-11-15T15:10:20;3.50;;;2.93;;
9156;SDS011;4613;48.392;9.998;2022-11-15T15:13:16;5.60;;;3.97;;
9156;SDS011;4613;48.392;9.998;2022-11-15T15:16:11;5.30;;;4.10;;
9156;SDS011;4613;48.392;9.998;2022-11-15T15:19:00;5.63;;;3.93;;
9156;SDS011;4613;48.392;9.998;2022-11-15T15:21:50;5.13;;;3.30;;
9156;SDS011;4613;48.392;9.998;2022-11-15T15:24:41;5.13;;;3.67;;
9156;SDS011;4613;48.392;9.998;2022-11-15T15:27:31;4.77;;;3.67;;
9156;SDS011;4613;48.392;9.998;2022-11-15T15:30:21;4.13;;;3.40;;
9156;SDS011;4613;48.392;9.998;2022-11-15T15:33:11;4.83;;;3.50;;
9156;SDS011;4613;48.392;9.998;2022-11-15T15:36:01;5.10;;;3.60;;
9156;SDS011;4613;48.392;9.998;2022-11-15T15:38:51;3.93;;;3.40;;
9156;SDS011;4613;48.392;9.998;2022-11-15T15:41:41;4.23;;;3.37;;
9156;SDS011;4613;48.392;9.998;2022-11-15T15:44:30;6.03;;;3.63;;
9156;SDS011;4613;48.392;9.998;2022-11-15T15:47:20;5.67;;;3.73;;
9156;SDS011;4613;48.392;9.998;2022-11-15T15:50:14;4.30;;;3.57;;
9156;SDS011;4613;48.392;9.998;2022-11-15T15:53:13;4.07;;;3.10;;
9156;SDS011;4613;48.392;9.998;2022-11-15T15:56:03;4.63;;;3.40;;
9156;SDS011;4613;48.392;9.998;2022-11-15T15:58:53;3.90;;;2.80;;
9156;SDS011;4613;48.392;9.998;2022-11-15T16:01:44;5.73;;;3.60;;
9156;SDS011;4613;48.392;9.998;2022-11-15T16:04:33;4.63;;;3.60;;
9156;SDS011;4613;48.392;9.998;2022-11-15T16:07:22;3.90;;;3.30;;
9156;SDS011;4613;48.392;9.998;2022-11-15T16:13:13;4.00;;;3.30;;
9156;SDS011;4613;48.392;9.998;2022-11-15T16:16:04;5.90;;;3.37;;
9156;SDS011;4613;48.392;9.998;2022-11-15T16:19:01;4.60;;;3.30;;
9156;SDS011;4613;48.392;9.998;2022-11-15T16:21:51;4.67;;;3.43;;
9156;SDS011;4613;48.392;9.998;2022-11-15T16:24:41;4.37;;;3.43;;
9156;SDS011;4613;48.392;9.998;2022-11-15T16:27:30;3.77;;;3.17;;
9156;SDS011;4613;48.392;9.998;2022-11-15T16:30:21;6.63;;;4.60;;
9156;SDS011;4613;48.392;9.998;2022-11-15T16:33:12;3.60;;;2.50;;
9156;SDS011;4613;48.392;9.998;2022-11-15T16:36:02;2.63;;;2.43;;
9156;SDS011;4613;48.392;9.998;2022-11-15T16:38:53;4.70;;;3.63;;
9156;SDS011;4613;48.392;9.998;2022-11-15T16:41:42;4.97;;;3.57;;
9156;SDS011;4613;48.392;9.998;2022-11-15T16:44:35;4.60;;;3.60;;
9156;SDS011;4613;48.392;9.998;2022-11-15T16:47:24;5.43;;;3.93;;
9156;SDS011;4613;48.392;9.998;2022-11-15T16:50:22;3.83;;;3.43;;
9156;SDS011;4613;48.392;9.998;2022-11-15T16:53:13;5.20;;;4.03;;
9156;SDS011;4613;48.392;9.998;2022-11-15T16:56:02;6.00;;;3.83;;
9156;SDS011;4613;48.392;9.998;2022-11-15T16:58:56;4.67;;;3.60;;
9156;SDS011;4613;48.392;9.998;2022-11-15T17:01:46;5.13;;;3.87;;
9156;SDS011;4613;48.392;9.998;2022-11-15T17:04:52;4.57;;;3.43;;
9156;SDS011;4613;48.392;9.998;2022-11-15T17:07:54;5.60;;;3.77;;
9156;SDS011;4613;48.392;9.998;2022-11-15T17:10:44;5.57;;;3.80;;
9156;SDS011;4613;48.392;9.998;2022-11-15T17:13:33;5.77;;;3.77;;
9156;SDS011;4613;48.392;9.998;2022-11-15T17:16:22;5.77;;;3.70;;
9156;SDS011;4613;48.392;9.998;2022-11-15T17:19:12;6.67;;;4.17;;
9156;SDS011;4613;48.392;9.998;2022-11-15T17:22:03;5.10;;;3.97;;
9156;SDS011;4613;48.392;9.998;2022-11-15T17:24:52;7.00;;;3.97;;
9156;SDS011;4613;48.392;9.998;2022-11-15T17:27:41;6.37;;;3.63;;
9156;SDS011;4613;48.392;9.998;2022-11-15T17:30:31;5.33;;;4.27;;
9156;SDS011;4613;48.392;9.998;2022-11-15T17:33:21;6.73;;;4.20;;
9156;SDS011;4613;48.392;9.998;2022-11-15T17:36:10;6.47;;;4.57;;
9156;SDS011;4613;48.392;9.998;2022-11-15T17:39:01;6.97;;;5.13;;
9156;SDS011;4613;48.392;9.998;2022-11-15T17:41:52;6.83;;;5.00;;
9156;SDS011;4613;48.392;9.998;2022-11-15T17:44:42;7.00;;;5.00;;
9156;SDS011;4613;48.392;9.998;2022-11-15T17:47:31;6.80;;;5.03;;
9156;SDS011;4613;48.392;9.998;2022-11-15T17:50:21;7.77;;;5.13;;
9156;SDS011;4613;48.392;9.998;2022-11-15T17:53:11;8.00;;;5.17;;
9156;SDS011;4613;48.392;9.998;2022-11-15T17:56:01;8.93;;;5.03;;
9156;SDS011;4613;48.392;9.998;2022-11-15T17:58:55;7.80;;;6.03;;
9156;SDS011;4613;48.392;9.998;2022-11-15T18:01:46;9.17;;;6.33;;
9156;SDS011;4613;48.392;9.998;2022-11-15T18:04:39;10.63;;;7.30;;
9156;SDS011;4613;48.392;9.998;2022-11-15T18:07:29;8.63;;;6.40;;
9156;SDS011;4613;48.392;9.998;2022-11-15T18:10:19;11.47;;;6.03;;
9156;SDS011;4613;48.392;9.998;2022-11-15T18:13:08;8.93;;;6.47;;
9156;SDS011;4613;48.392;9.998;2022-11-15T18:15:58;9.53;;;5.97;;
9156;SDS011;4613;48.392;9.998;2022-11-15T18:18:50;9.60;;;6.10;;
9156;SDS011;4613;48.392;9.998;2022-11-15T18:21:42;9.50;;;5.53;;
9156;SDS011;4613;48.392;9.998;2022-11-15T18:24:45;9.00;;;6.27;;
9156;SDS011;4613;48.392;9.998;2022-11-15T18:27:34;8.53;;;5.63;;
9156;SDS011;4613;48.392;9.998;2022-11-15T18:30:24;7.83;;;5.70;;
9156;SDS011;4613;48.392;9.998;2022-11-15T18:33:13;7.00;;;4.90;;
9156;SDS011;4613;48.392;9.998;2022-11-15T18:36:04;8.73;;;5.57;;
9156;SDS011;4613;48.392;9.998;2022-11-15T18:38:56;5.67;;;5.00;;
9156;SDS011;4613;48.392;9.998;2022-11-15T18:41:52;6.57;;;4.63;;
9156;SDS011;4613;48.392;9.998;2022-11-15T18:44:41;6.50;;;4.23;;
9156;SDS011;4613;48.392;9.998;2022-11-15T18:47:31;6.37;;;4.57;;
9156;SDS011;4613;48.392;9.998;2022-11-15T18:50:20;6.90;;;4.20;;
9156;SDS011;4613;48.392;9.998;2022-11-15T18:53:10;6.77;;;4.40;;
9156;SDS011;4613;48.392;9.998;2022-11-15T18:56:04;7.10;;;4.77;;
9156;SDS011;4613;48.392;9.998;2022-11-15T18:59:00;9.13;;;5.20;;
9156;SDS011;4613;48.392;9.998;2022-11-15T19:01:50;7.67;;;5.27;;
9156;SDS011;4613;48.392;9.998;2022-11-15T19:04:43;5.67;;;4.47;;
9156;SDS011;4613;48.392;9.998;2022-11-15T19:07:33;5.13;;;4.23;;
9156;SDS011;4613;48.392;9.998;2022-11-15T19:10:24;6.13;;;4.10;;
9156;SDS011;4613;48.392;9.998;2022-11-15T19:13:14;9.53;;;4.33;;
9156;SDS011;4613;48.392;9.998;2022-11-15T19:16:04;6.10;;;4.63;;
9156;SDS011;4613;48.392;9.998;2022-11-15T19:18:57;5.57;;;4.10;;
9156;SDS011;4613;48.392;9.998;2022-11-15T19:21:47;6.37;;;4.60;;
9156;SDS011;4613;48.392;9.998;2022-11-15T19:24:38;6.47;;;4.30;;
9156;SDS011;4613;48.392;9.998;2022-11-15T19:27:28;5.17;;;4.10;;
9156;SDS011;4613;48.392;9.998;2022-11-15T19:30:17;7.43;;;4.77;;
9156;SDS011;4613;48.392;9.998;2022-11-15T19:33:07;6.90;;;4.60;;
9156;SDS011;4613;48.392;9.998;2022-11-15T19:36:02;7.13;;;4.67;;
9156;SDS011;4613;48.392;9.998;2022-11-15T19:38:56;6.03;;;4.97;;
9156;SDS011;4613;48.392;9.998;2022-11-15T19:41:46;4.17;;;3.77;;
9156;SDS011;4613;48.392;9.998;2022-11-15T19:44:36;4.67;;;4.10;;
9156;SDS011;4613;48.392;9.998;2022-11-15T19:47:25;6.87;;;4.57;;
9156;SDS011;4613;48.392;9.998;2022-11-15T19:50:16;7.00;;;5.27;;
9156;SDS011;4613;48.392;9.998;2022-11-15T19:53:05;7.53;;;4.70;;
9156;SDS011;4613;48.392;9.998;2022-11-15T19:55:57;6.23;;;4.97;;
9156;SDS011;4613;48.392;9.998;2022-11-15T19:58:49;5.63;;;4.40;;
9156;SDS011;4613;48.392;9.998;2022-11-15T20:01:40;4.17;;;3.60;;
9156;SDS011;4613;48.392;9.998;2022-11-15T20:04:30;5.27;;;3.90;;
9156;SDS011;4613;48.392;9.998;2022-11-15T20:07:20;5.07;;;3.93;;
9156;SDS011;4613;48.392;9.998;2022-11-15T20:10:09;5.00;;;4.13;;
9156;SDS011;4613;48.392;9.998;2022-11-15T20:12:59;6.03;;;4.03;;
9156;SDS011;4613;48.392;9.998;2022-11-15T20:15:48;5.43;;;3.97;;
9156;SDS011;4613;48.392;9.998;2022-11-15T20:18:38;7.23;;;3.67;;
9156;SDS011;4613;48.392;9.998;2022-11-15T20:21:27;5.83;;;4.13;;
9156;SDS011;4613;48.392;9.998;2022-11-15T20:24:16;4.90;;;4.10;;
9156;SDS011;4613;48.392;9.998;2022-11-15T20:27:08;5.70;;;3.90;;
9156;SDS011;4613;48.392;9.998;2022-11-15T20:29:58;5.37;;;3.90;;
9156;SDS011;4613;48.392;9.998;2022-11-15T20:32:47;5.27;;;3.87;;
9156;SDS011;4613;48.392;9.998;2022-11-15T20:35:37;5.40;;;4.27;;
9156;SDS011;4613;48.392;9.998;2022-11-15T20:38:27;5.13;;;3.73;;
9156;SDS011;4613;48.392;9.998;2022-11-15T20:41:20;4.67;;;3.90;;